sensor_id;sensor_type;location;lat;lon;timestamp;P1;durP1;ratioP1;P2;durP2;ratioP2
44842;SDS011;31884;52.538;13.820;2022-07-23T00:00:15;4.45;;;3.60;;
44842;SDS011;31884;52.538;13.820;2022-07-23T00:02:40;3.33;;;3.03;;
44842;SDS011;31884;52.538;13.820;2022-07-23T00:05:06;4.60;;;3.25;;
44842;SDS011;31884;52.538;13.820;2022-07-23T00:07:32;5.45;;;3.22;;
44842;SDS011;31884;52.538;13.820;2022-07-23T00:09:58;4.03;;;3.22;;
44842;SDS011;31884;52.538;13.820;2022-07-23T00:12:23;2.67;;;2.45;;
44842;SDS011;31884;52.538;13.820;2022-07-23T00:14:49;3.63;;;3.33;;
44842;SDS011;31884;52.538;13.820;2022-07-23T00:17:14;2.90;;;2.70;;
44842;SDS011;31884;52.538;13.820;2022-07-23T00:19:40;4.00;;;2.88;;
44842;SDS011;31884;52.538;13.820;2022-07-23T00:22:05;3.38;;;2.75;;
44842;SDS011;31884;52.538;13.820;2022-07-23T00:24:31;5.25;;;3.13;;
44842;SDS011;31884;52.538;13.820;2022-07-23T00:26:56;4.32;;;2.80;;
44842;SDS011;31884;52.538;13.820;2022-07-23T00:29:22;3.33;;;3.03;;
44842;SDS011;31884;52.538;13.820;2022-07-23T00:31:47;3.55;;;2.97;;
44842;SDS011;31884;52.538;13.820;2022-07-23T00:34:13;5.05;;;3.83;;
44842;SDS011;31884;52.538;13.820;2022-07-23T00:36:38;3.88;;;2.90;;
44842;SDS011;31884;52.538;13.820;2022-07-23T00:39:04;3.83;;;2.70;;
44842;SDS011;31884;52.538;13.820;2022-07-23T00:41:30;3.45;;;3.08;;
44842;SDS011;31884;52.538;13.820;2022-07-23T00:43:55;5.65;;;3.20;;
44842;SDS011;31884;52.538;13.820;2022-07-23T00:46:44;4.22;;;3.30;;
44842;SDS011;31884;52.538;13.820;2022-07-23T00:49:10;5.55;;;3.08;;
44842;SDS011;31884;52.538;13.820;2022-07-23T00:51:36;4.43;;;3.22;;
44842;SDS011;31884;52.538;13.820;2022-07-23T00:54:01;4.10;;;3.70;;
44842;SDS011;31884;52.538;13.820;2022-07-23T00:56:27;4.35;;;3.42;;
44842;SDS011;31884;52.538;13.820;2022-07-23T00:58:52;7.32;;;3.58;;
44842;SDS011;31884;52.538;13.820;2022-07-23T01:01:18;5.05;;;3.78;;
44842;SDS011;31884;52.538;13.820;2022-07-23T01:03:44;7.63;;;3.90;;
44842;SDS011;31884;52.538;13.820;2022-07-23T01:06:09;4.13;;;3.50;;
44842;SDS011;31884;52.538;13.820;2022-07-23T01:08:35;6.72;;;3.63;;
44842;SDS011;31884;52.538;13.820;2022-07-23T01:11:00;3.60;;;2.67;;
44842;SDS011;31884;52.538;13.820;2022-07-23T01:13:26;7.05;;;3.47;;
44842;SDS011;31884;52.538;13.820;2022-07-23T01:15:51;3.70;;;3.33;;
44842;SDS011;31884;52.538;13.820;2022-07-23T01:18:16;3.50;;;3.20;;
44842;SDS011;31884;52.538;13.820;2022-07-23T01:20:42;4.68;;;3.40;;
44842;SDS011;31884;52.538;13.820;2022-07-23T01:23:07;5.43;;;4.10;;
44842;SDS011;31884;52.538;13.820;2022-07-23T01:25:33;5.18;;;4.03;;
44842;SDS011;31884;52.538;13.820;2022-07-23T01:27:58;5.50;;;3.47;;
44842;SDS011;31884;52.538;13.820;2022-07-23T01:30:24;3.72;;;3.10;;
44842;SDS011;31884;52.538;13.820;2022-07-23T01:32:49;6.45;;;3.90;;
44842;SDS011;31884;52.538;13.820;2022-07-23T01:35:15;5.93;;;4.18;;
44842;SDS011;31884;52.538;13.820;2022-07-23T01:37:41;5.80;;;3.45;;
44842;SDS011;31884;52.538;13.820;2022-07-23T01:40:06;4.03;;;3.53;;
44842;SDS011;31884;52.538;13.820;2022-07-23T01:42:32;4.97;;;3.85;;
44842;SDS011;31884;52.538;13.820;2022-07-23T01:44:58;4.47;;;3.60;;
44842;SDS011;31884;52.538;13.820;2022-07-23T01:47:23;3.78;;;3.20;;
44842;SDS011;31884;52.538;13.820;2022-07-23T01:49:49;4.80;;;4.05;;
44842;SDS011;31884;52.538;13.820;2022-07-23T01:52:14;3.75;;;3.45;;
44842;SDS011;31884;52.538;13.820;2022-07-23T01:54:41;3.33;;;3.03;;
44842;SDS011;31884;52.538;13.820;2022-07-23T01:57:06;5.15;;;3.53;;
44842;SDS011;31884;52.538;13.820;2022-07-23T01:59:32;4.15;;;3.60;;
44842;SDS011;31884;52.538;13.820;2022-07-23T02:01:59;3.92;;;3.53;;
44842;SDS011;31884;52.538;13.820;2022-07-23T02:04:24;4.63;;;3.83;;
44842;SDS011;31884;52.538;13.820;2022-07-23T02:06:51;3.70;;;3.30;;
44842;SDS011;31884;52.538;13.820;2022-07-23T02:09:17;3.90;;;3.28;;
44842;SDS011;31884;52.538;13.820;2022-07-23T02:11:43;4.90;;;3.60;;
44842;SDS011;31884;52.538;13.820;2022-07-23T02:14:08;3.25;;;2.95;;
44842;SDS011;31884;52.538;13.820;2022-07-23T02:16:34;3.10;;;2.80;;
44842;SDS011;31884;52.538;13.820;2022-07-23T02:19:00;4.78;;;3.40;;
44842;SDS011;31884;52.538;13.820;2022-07-23T02:21:25;3.60;;;3.13;;
44842;SDS011;31884;52.538;13.820;2022-07-23T02:23:50;3.45;;;3.15;;
44842;SDS011;31884;52.538;13.820;2022-07-23T02:26:16;3.70;;;3.40;;
44842;SDS011;31884;52.538;13.820;2022-07-23T02:28:42;4.13;;;3.55;;
44842;SDS011;31884;52.538;13.820;2022-07-23T02:31:07;5.15;;;3.40;;
44842;SDS011;31884;52.538;13.820;2022-07-23T02:33:33;4.43;;;3.40;;
44842;SDS011;31884;52.538;13.820;2022-07-23T02:35:58;4.15;;;3.40;;
44842;SDS011;31884;52.538;13.820;2022-07-23T02:38:24;6.43;;;3.47;;
44842;SDS011;31884;52.538;13.820;2022-07-23T02:40:50;3.67;;;3.25;;
44842;SDS011;31884;52.538;13.820;2022-07-23T02:43:15;4.63;;;4.03;;
44842;SDS011;31884;52.538;13.820;2022-07-23T02:45:41;3.40;;;3.10;;
44842;SDS011;31884;52.538;13.820;2022-07-23T02:48:07;3.90;;;3.38;;
44842;SDS011;31884;52.538;13.820;2022-07-23T02:50:32;5.00;;;4.22;;
44842;SDS011;31884;52.538;13.820;2022-07-23T02:52:58;4.25;;;3.85;;
44842;SDS011;31884;52.538;13.820;2022-07-23T02:55:23;6.05;;;3.60;;
44842;SDS011;31884;52.538;13.820;2022-07-23T02:57:49;4.53;;;3.50;;
44842;SDS011;31884;52.538;13.820;2022-07-23T03:00:14;4.15;;;3.63;;
44842;SDS011;31884;52.538;13.820;2022-07-23T03:02:40;3.63;;;3.33;;
44842;SDS011;31884;52.538;13.820;2022-07-23T03:05:05;4.63;;;3.85;;
44842;SDS011;31884;52.538;13.820;2022-07-23T03:07:31;5.80;;;3.67;;
44842;SDS011;31884;52.538;13.820;2022-07-23T03:09:57;3.97;;;3.55;;
44842;SDS011;31884;52.538;13.820;2022-07-23T03:12:22;4.55;;;3.83;;
44842;SDS011;31884;52.538;13.820;2022-07-23T03:14:48;4.78;;;3.50;;
44842;SDS011;31884;52.538;13.820;2022-07-23T03:17:13;3.53;;;3.20;;
44842;SDS011;31884;52.538;13.820;2022-07-23T03:19:39;4.15;;;3.75;;
44842;SDS011;31884;52.538;13.820;2022-07-23T03:22:04;6.95;;;3.90;;
44842;SDS011;31884;52.538;13.820;2022-07-23T03:24:30;3.97;;;3.45;;
44842;SDS011;31884;52.538;13.820;2022-07-23T03:27:14;5.68;;;3.40;;
44842;SDS011;31884;52.538;13.820;2022-07-23T03:29:39;4.35;;;3.55;;
44842;SDS011;31884;52.538;13.820;2022-07-23T03:32:05;4.85;;;4.25;;
44842;SDS011;31884;52.538;13.820;2022-07-23T03:34:30;4.38;;;3.67;;
44842;SDS011;31884;52.538;13.820;2022-07-23T03:36:56;4.18;;;3.78;;
44842;SDS011;31884;52.538;13.820;2022-07-23T03:39:21;5.32;;;4.03;;
44842;SDS011;31884;52.538;13.820;2022-07-23T03:41:47;7.50;;;4.57;;
44842;SDS011;31884;52.538;13.820;2022-07-23T03:44:12;4.88;;;4.40;;
44842;SDS011;31884;52.538;13.820;2022-07-23T03:46:38;5.85;;;4.60;;
44842;SDS011;31884;52.538;13.820;2022-07-23T03:49:03;5.78;;;4.57;;
44842;SDS011;31884;52.538;13.820;2022-07-23T03:51:29;6.03;;;4.57;;
44842;SDS011;31884;52.538;13.820;2022-07-23T03:53:54;5.38;;;4.40;;
44842;SDS011;31884;52.538;13.820;2022-07-23T03:56:20;7.20;;;4.93;;
44842;SDS011;31884;52.538;13.820;2022-07-23T03:58:46;8.73;;;6.00;;
44842;SDS011;31884;52.538;13.820;2022-07-23T04:01:11;7.70;;;5.00;;
44842;SDS011;31884;52.538;13.820;2022-07-23T04:03:37;6.78;;;4.75;;
44842;SDS011;31884;52.538;13.820;2022-07-23T04:06:02;5.93;;;5.18;;
44842;SDS011;31884;52.538;13.820;2022-07-23T04:08:28;6.63;;;5.55;;
44842;SDS011;31884;52.538;13.820;2022-07-23T04:10:53;6.10;;;5.50;;
44842;SDS011;31884;52.538;13.820;2022-07-23T04:13:19;5.75;;;5.15;;
44842;SDS011;31884;52.538;13.820;2022-07-23T04:15:45;8.55;;;5.63;;
44842;SDS011;31884;52.538;13.820;2022-07-23T04:18:11;7.07;;;5.13;;
44842;SDS011;31884;52.538;13.820;2022-07-23T04:20:36;5.28;;;4.40;;
44842;SDS011;31884;52.538;13.820;2022-07-23T04:23:02;6.20;;;4.55;;
44842;SDS011;31884;52.538;13.820;2022-07-23T04:25:27;5.03;;;4.53;;
44842;SDS011;31884;52.538;13.820;2022-07-23T04:27:52;8.75;;;5.07;;
44842;SDS011;31884;52.538;13.820;2022-07-23T04:30:18;6.32;;;5.35;;
44842;SDS011;31884;52.538;13.820;2022-07-23T04:32:43;6.75;;;4.70;;
44842;SDS011;31884;52.538;13.820;2022-07-23T04:35:09;5.75;;;4.68;;
44842;SDS011;31884;52.538;13.820;2022-07-23T04:37:34;6.40;;;4.97;;
44842;SDS011;31884;52.538;13.820;2022-07-23T04:40:00;7.60;;;4.93;;
44842;SDS011;31884;52.538;13.820;2022-07-23T04:42:25;5.28;;;4.57;;
44842;SDS011;31884;52.538;13.820;2022-07-23T04:44:51;5.88;;;4.80;;
44842;SDS011;31884;52.538;13.820;2022-07-23T04:47:16;5.78;;;5.05;;
44842;SDS011;31884;52.538;13.820;2022-07-23T04:49:42;8.23;;;5.47;;
44842;SDS011;31884;52.538;13.820;2022-07-23T04:52:07;6.78;;;4.68;;
44842;SDS011;31884;52.538;13.820;2022-07-23T04:54:33;9.07;;;4.78;;
44842;SDS011;31884;52.538;13.820;2022-07-23T04:56:58;5.00;;;4.22;;
44842;SDS011;31884;52.538;13.820;2022-07-23T04:59:24;5.53;;;4.28;;
44842;SDS011;31884;52.538;13.820;2022-07-23T05:01:49;5.43;;;4.60;;
44842;SDS011;31884;52.538;13.820;2022-07-23T05:04:15;6.25;;;4.22;;
44842;SDS011;31884;52.538;13.820;2022-07-23T05:06:40;6.60;;;5.25;;
44842;SDS011;31884;52.538;13.820;2022-07-23T05:09:06;8.68;;;6.20;;
44842;SDS011;31884;52.538;13.820;2022-07-23T05:11:31;6.25;;;4.93;;
44842;SDS011;31884;52.538;13.820;2022-07-23T05:13:57;6.82;;;5.53;;
44842;SDS011;31884;52.538;13.820;2022-07-23T05:16:22;10.50;;;5.53;;
44842;SDS011;31884;52.538;13.820;2022-07-23T05:18:48;8.55;;;5.72;;
44842;SDS011;31884;52.538;13.820;2022-07-23T05:21:13;8.38;;;5.43;;
44842;SDS011;31884;52.538;13.820;2022-07-23T05:23:39;7.32;;;5.25;;
44842;SDS011;31884;52.538;13.820;2022-07-23T05:26:04;7.93;;;5.55;;
44842;SDS011;31884;52.538;13.820;2022-07-23T05:28:30;7.38;;;5.53;;
44842;SDS011;31884;52.538;13.820;2022-07-23T05:30:55;7.63;;;5.55;;
44842;SDS011;31884;52.538;13.820;2022-07-23T05:33:21;9.05;;;6.03;;
44842;SDS011;31884;52.538;13.820;2022-07-23T05:35:46;5.20;;;4.53;;
44842;SDS011;31884;52.538;13.820;2022-07-23T05:38:12;7.03;;;4.55;;
44842;SDS011;31884;52.538;13.820;2022-07-23T05:40:37;5.63;;;4.55;;
44842;SDS011;31884;52.538;13.820;2022-07-23T05:43:03;5.32;;;4.60;;
44842;SDS011;31884;52.538;13.820;2022-07-23T05:45:28;9.45;;;4.68;;
44842;SDS011;31884;52.538;13.820;2022-07-23T05:47:54;5.65;;;3.85;;
44842;SDS011;31884;52.538;13.820;2022-07-23T05:50:19;4.65;;;3.78;;
44842;SDS011;31884;52.538;13.820;2022-07-23T05:52:45;6.80;;;3.88;;
44842;SDS011;31884;52.538;13.820;2022-07-23T05:55:11;6.63;;;4.53;;
44842;SDS011;31884;52.538;13.820;2022-07-23T05:57:37;6.32;;;4.95;;
44842;SDS011;31884;52.538;13.820;2022-07-23T06:00:03;6.15;;;4.20;;
44842;SDS011;31884;52.538;13.820;2022-07-23T06:02:30;5.20;;;4.03;;
44842;SDS011;31884;52.538;13.820;2022-07-23T06:04:56;6.18;;;3.53;;
44842;SDS011;31884;52.538;13.820;2022-07-23T06:07:21;4.80;;;3.72;;
44842;SDS011;31884;52.538;13.820;2022-07-23T06:09:47;5.78;;;3.53;;
44842;SDS011;31884;52.538;13.820;2022-07-23T06:12:13;6.93;;;3.70;;
44842;SDS011;31884;52.538;13.820;2022-07-23T06:14:40;4.10;;;3.20;;
44842;SDS011;31884;52.538;13.820;2022-07-23T06:17:05;6.75;;;3.53;;
44842;SDS011;31884;52.538;13.820;2022-07-23T06:19:31;7.88;;;3.50;;
44842;SDS011;31884;52.538;13.820;2022-07-23T06:21:56;4.93;;;3.80;;
44842;SDS011;31884;52.538;13.820;2022-07-23T06:24:22;6.32;;;2.97;;
44842;SDS011;31884;52.538;13.820;2022-07-23T06:26:47;5.30;;;3.25;;
44842;SDS011;31884;52.538;13.820;2022-07-23T06:29:13;6.22;;;3.40;;
44842;SDS011;31884;52.538;13.820;2022-07-23T06:31:38;4.03;;;2.92;;
44842;SDS011;31884;52.538;13.820;2022-07-23T06:34:04;7.10;;;4.18;;
44842;SDS011;31884;52.538;13.820;2022-07-23T06:36:29;10.98;;;4.10;;
44842;SDS011;31884;52.538;13.820;2022-07-23T06:38:55;6.53;;;3.40;;
44842;SDS011;31884;52.538;13.820;2022-07-23T06:41:21;3.75;;;3.00;;
44842;SDS011;31884;52.538;13.820;2022-07-23T06:43:47;5.22;;;3.40;;
44842;SDS011;31884;52.538;13.820;2022-07-23T06:46:13;4.00;;;3.33;;
44842;SDS011;31884;52.538;13.820;2022-07-23T06:48:38;4.13;;;3.15;;
44842;SDS011;31884;52.538;13.820;2022-07-23T06:51:04;3.72;;;2.85;;
44842;SDS011;31884;52.538;13.820;2022-07-23T06:53:29;5.53;;;3.08;;
44842;SDS011;31884;52.538;13.820;2022-07-23T06:55:55;3.05;;;2.83;;
44842;SDS011;31884;52.538;13.820;2022-07-23T06:58:20;6.70;;;3.10;;
44842;SDS011;31884;52.538;13.820;2022-07-23T07:00:46;5.13;;;3.03;;
44842;SDS011;31884;52.538;13.820;2022-07-23T07:03:11;4.78;;;3.25;;
44842;SDS011;31884;52.538;13.820;2022-07-23T07:05:37;6.68;;;3.10;;
44842;SDS011;31884;52.538;13.820;2022-07-23T07:08:04;5.47;;;3.20;;
44842;SDS011;31884;52.538;13.820;2022-07-23T07:10:30;4.00;;;3.22;;
44842;SDS011;31884;52.538;13.820;2022-07-23T07:12:56;5.30;;;3.15;;
44842;SDS011;31884;52.538;13.820;2022-07-23T07:15:21;6.90;;;3.60;;
44842;SDS011;31884;52.538;13.820;2022-07-23T07:17:47;4.07;;;3.03;;
44842;SDS011;31884;52.538;13.820;2022-07-23T07:20:12;3.67;;;3.00;;
44842;SDS011;31884;52.538;13.820;2022-07-23T07:22:38;6.07;;;3.33;;
44842;SDS011;31884;52.538;13.820;2022-07-23T07:25:04;3.15;;;2.90;;
44842;SDS011;31884;52.538;13.820;2022-07-23T07:27:30;4.03;;;2.70;;
44842;SDS011;31884;52.538;13.820;2022-07-23T07:29:56;4.65;;;2.85;;
44842;SDS011;31884;52.538;13.820;2022-07-23T07:32:21;6.45;;;3.10;;
44842;SDS011;31884;52.538;13.820;2022-07-23T07:34:47;5.72;;;3.30;;
44842;SDS011;31884;52.538;13.820;2022-07-23T07:37:12;4.13;;;3.05;;
44842;SDS011;31884;52.538;13.820;2022-07-23T07:39:38;3.38;;;2.78;;
44842;SDS011;31884;52.538;13.820;2022-07-23T07:42:04;5.40;;;2.97;;
44842;SDS011;31884;52.538;13.820;2022-07-23T07:44:29;4.13;;;2.88;;
44842;SDS011;31884;52.538;13.820;2022-07-23T07:46:55;6.47;;;2.63;;
44842;SDS011;31884;52.538;13.820;2022-07-23T07:49:20;5.40;;;3.05;;
44842;SDS011;31884;52.538;13.820;2022-07-23T07:51:46;4.10;;;2.25;;
44842;SDS011;31884;52.538;13.820;2022-07-23T07:54:12;4.18;;;2.92;;
44842;SDS011;31884;52.538;13.820;2022-07-23T07:56:38;2.75;;;2.20;;
44842;SDS011;31884;52.538;13.820;2022-07-23T07:59:03;4.72;;;2.97;;
44842;SDS011;31884;52.538;13.820;2022-07-23T08:01:29;4.85;;;2.97;;
44842;SDS011;31884;52.538;13.820;2022-07-23T08:03:54;5.35;;;3.15;;
44842;SDS011;31884;52.538;13.820;2022-07-23T08:06:20;3.35;;;2.88;;
44842;SDS011;31884;52.538;13.820;2022-07-23T08:08:45;4.43;;;3.15;;
44842;SDS011;31884;52.538;13.820;2022-07-23T08:11:11;2.70;;;2.40;;
44842;SDS011;31884;52.538;13.820;2022-07-23T08:13:36;4.65;;;3.15;;
44842;SDS011;31884;52.538;13.820;2022-07-23T08:16:02;8.57;;;3.20;;
44842;SDS011;31884;52.538;13.820;2022-07-23T08:18:27;3.53;;;2.88;;
44842;SDS011;31884;52.538;13.820;2022-07-23T08:20:53;4.45;;;3.13;;
44842;SDS011;31884;52.538;13.820;2022-07-23T08:23:18;4.50;;;3.00;;
44842;SDS011;31884;52.538;13.820;2022-07-23T08:25:44;4.97;;;3.22;;
44842;SDS011;31884;52.538;13.820;2022-07-23T08:28:12;4.60;;;2.80;;
44842;SDS011;31884;52.538;13.820;2022-07-23T08:30:40;5.65;;;3.40;;
44842;SDS011;31884;52.538;13.820;2022-07-23T08:33:13;8.15;;;3.50;;
44842;SDS011;31884;52.538;13.820;2022-07-23T08:35:43;7.32;;;3.17;;
44842;SDS011;31884;52.538;13.820;2022-07-23T08:38:14;5.20;;;3.63;;
44842;SDS011;31884;52.538;13.820;2022-07-23T08:40:43;4.70;;;3.40;;
44842;SDS011;31884;52.538;13.820;2022-07-23T08:43:10;4.68;;;3.28;;
44842;SDS011;31884;52.538;13.820;2022-07-23T08:45:42;3.83;;;2.75;;
44842;SDS011;31884;52.538;13.820;2022-07-23T08:48:14;3.10;;;2.70;;
44842;SDS011;31884;52.538;13.820;2022-07-23T08:50:45;4.30;;;2.08;;
44842;SDS011;31884;52.538;13.820;2022-07-23T08:53:12;4.80;;;2.60;;
44842;SDS011;31884;52.538;13.820;2022-07-23T08:55:38;3.47;;;2.15;;
44842;SDS011;31884;52.538;13.820;2022-07-23T08:58:04;5.07;;;2.28;;
44842;SDS011;31884;52.538;13.820;2022-07-23T09:00:30;6.63;;;2.05;;
44842;SDS011;31884;52.538;13.820;2022-07-23T09:02:57;4.72;;;2.10;;
44842;SDS011;31884;52.538;13.820;2022-07-23T09:05:23;3.95;;;2.30;;
44842;SDS011;31884;52.538;13.820;2022-07-23T09:08:08;2.83;;;1.60;;
44842;SDS011;31884;52.538;13.820;2022-07-23T09:13:26;2.30;;;1.60;;
44842;SDS011;31884;52.538;13.820;2022-07-23T09:15:52;2.50;;;1.30;;
44842;SDS011;31884;52.538;13.820;2022-07-23T09:18:19;2.63;;;1.50;;
44842;SDS011;31884;52.538;13.820;2022-07-23T09:20:54;1.65;;;1.38;;
44842;SDS011;31884;52.538;13.820;2022-07-23T09:23:57;2.28;;;1.50;;
44842;SDS011;31884;52.538;13.820;2022-07-23T09:26:26;3.92;;;1.70;;
44842;SDS011;31884;52.538;13.820;2022-07-23T09:29:10;3.60;;;1.50;;
44842;SDS011;31884;52.538;13.820;2022-07-23T09:31:45;3.70;;;1.33;;
44842;SDS011;31884;52.538;13.820;2022-07-23T09:34:32;4.55;;;1.77;;
44842;SDS011;31884;52.538;13.820;2022-07-23T09:39:44;4.03;;;1.88;;
44842;SDS011;31884;52.538;13.820;2022-07-23T09:42:15;2.85;;;1.48;;
44842;SDS011;31884;52.538;13.820;2022-07-23T09:44:43;2.25;;;1.38;;
44842;SDS011;31884;52.538;13.820;2022-07-23T09:47:10;2.25;;;1.30;;
44842;SDS011;31884;52.538;13.820;2022-07-23T09:49:36;3.05;;;1.30;;
44842;SDS011;31884;52.538;13.820;2022-07-23T09:52:02;2.65;;;1.50;;
44842;SDS011;31884;52.538;13.820;2022-07-23T09:59:38;1.98;;;1.45;;
44842;SDS011;31884;52.538;13.820;2022-07-23T10:02:04;3.20;;;1.40;;
44842;SDS011;31884;52.538;13.820;2022-07-23T10:04:31;2.50;;;1.52;;
44842;SDS011;31884;52.538;13.820;2022-07-23T10:06:58;4.72;;;1.73;;
44842;SDS011;31884;52.538;13.820;2022-07-23T10:09:30;4.10;;;2.05;;
44842;SDS011;31884;52.538;13.820;2022-07-23T10:11:58;5.70;;;1.88;;
44842;SDS011;31884;52.538;13.820;2022-07-23T10:14:31;2.97;;;1.67;;
44842;SDS011;31884;52.538;13.820;2022-07-23T10:16:59;5.13;;;2.05;;
44842;SDS011;31884;52.538;13.820;2022-07-23T10:19:26;3.00;;;1.60;;
44842;SDS011;31884;52.538;13.820;2022-07-23T10:21:55;3.60;;;1.67;;
44842;SDS011;31884;52.538;13.820;2022-07-23T10:24:38;3.55;;;1.67;;
44842;SDS011;31884;52.538;13.820;2022-07-23T10:27:26;3.85;;;1.50;;
44842;SDS011;31884;52.538;13.820;2022-07-23T10:38:55;2.55;;;1.40;;
44842;SDS011;31884;52.538;13.820;2022-07-23T10:41:34;2.83;;;1.40;;
44842;SDS011;31884;52.538;13.820;2022-07-23T10:46:56;2.53;;;1.48;;
44842;SDS011;31884;52.538;13.820;2022-07-23T10:49:31;3.75;;;1.60;;
44842;SDS011;31884;52.538;13.820;2022-07-23T10:54:53;3.20;;;2.03;;
44842;SDS011;31884;52.538;13.820;2022-07-23T10:57:48;3.15;;;1.90;;
44842;SDS011;31884;52.538;13.820;2022-07-23T11:00:18;4.00;;;2.25;;
44842;SDS011;31884;52.538;13.820;2022-07-23T11:02:47;3.33;;;1.90;;
44842;SDS011;31884;52.538;13.820;2022-07-23T11:05:15;5.15;;;1.80;;
44842;SDS011;31884;52.538;13.820;2022-07-23T11:10:39;3.72;;;1.80;;
44842;SDS011;31884;52.538;13.820;2022-07-23T11:16:22;1.95;;;1.52;;
44842;SDS011;31884;52.538;13.820;2022-07-23T11:31:52;3.67;;;2.08;;
44842;SDS011;31884;52.538;13.820;2022-07-23T11:37:07;2.58;;;1.88;;
44842;SDS011;31884;52.538;13.820;2022-07-23T11:39:34;3.13;;;1.67;;
44842;SDS011;31884;52.538;13.820;2022-07-23T11:42:01;3.53;;;1.65;;
44842;SDS011;31884;52.538;13.820;2022-07-23T11:44:33;3.88;;;2.00;;
44842;SDS011;31884;52.538;13.820;2022-07-23T11:47:04;3.55;;;1.88;;
44842;SDS011;31884;52.538;13.820;2022-07-23T11:49:34;3.90;;;1.65;;
44842;SDS011;31884;52.538;13.820;2022-07-23T11:52:04;2.00;;;1.40;;
44842;SDS011;31884;52.538;13.820;2022-07-23T11:54:31;3.15;;;2.03;;
44842;SDS011;31884;52.538;13.820;2022-07-23T11:56:58;3.13;;;2.03;;
44842;SDS011;31884;52.538;13.820;2022-07-23T11:59:26;3.58;;;1.60;;
44842;SDS011;31884;52.538;13.820;2022-07-23T12:01:57;3.55;;;1.58;;
44842;SDS011;31884;52.538;13.820;2022-07-23T12:04:29;2.58;;;1.83;;
44842;SDS011;31884;52.538;13.820;2022-07-23T12:09:52;4.05;;;1.70;;
44842;SDS011;31884;52.538;13.820;2022-07-23T12:12:18;2.72;;;1.38;;
44842;SDS011;31884;52.538;13.820;2022-07-23T12:15:02;2.58;;;1.60;;
44842;SDS011;31884;52.538;13.820;2022-07-23T12:17:30;3.03;;;1.88;;
44842;SDS011;31884;52.538;13.820;2022-07-23T12:19:58;3.25;;;1.58;;
44842;SDS011;31884;52.538;13.820;2022-07-23T12:22:25;4.65;;;2.00;;
44842;SDS011;31884;52.538;13.820;2022-07-23T12:24:52;2.58;;;1.58;;
44842;SDS011;31884;52.538;13.820;2022-07-23T12:27:21;1.77;;;1.58;;
44842;SDS011;31884;52.538;13.820;2022-07-23T12:29:48;2.75;;;2.10;;
44842;SDS011;31884;52.538;13.820;2022-07-23T12:32:18;3.88;;;2.00;;
44842;SDS011;31884;52.538;13.820;2022-07-23T12:37:33;4.28;;;1.40;;
44842;SDS011;31884;52.538;13.820;2022-07-23T12:40:19;2.67;;;1.75;;
44842;SDS011;31884;52.538;13.820;2022-07-23T12:43:00;2.65;;;1.52;;
44842;SDS011;31884;52.538;13.820;2022-07-23T12:45:28;1.50;;;1.40;;
44842;SDS011;31884;52.538;13.820;2022-07-23T12:48:36;2.63;;;1.50;;
44842;SDS011;31884;52.538;13.820;2022-07-23T12:51:23;1.88;;;1.42;;
44842;SDS011;31884;52.538;13.820;2022-07-23T12:53:49;3.95;;;2.30;;
44842;SDS011;31884;52.538;13.820;2022-07-23T12:56:21;3.05;;;1.90;;
44842;SDS011;31884;52.538;13.820;2022-07-23T12:58:52;3.77;;;1.70;;
44842;SDS011;31884;52.538;13.820;2022-07-23T13:03:54;2.70;;;1.65;;
44842;SDS011;31884;52.538;13.820;2022-07-23T13:06:23;2.70;;;1.70;;
44842;SDS011;31884;52.538;13.820;2022-07-23T13:08:49;3.70;;;2.08;;
44842;SDS011;31884;52.538;13.820;2022-07-23T13:11:14;2.20;;;1.77;;
44842;SDS011;31884;52.538;13.820;2022-07-23T13:13:39;5.63;;;2.40;;
44842;SDS011;31884;52.538;13.820;2022-07-23T13:16:06;3.33;;;2.00;;
44842;SDS011;31884;52.538;13.820;2022-07-23T13:18:32;5.35;;;1.50;;
44842;SDS011;31884;52.538;13.820;2022-07-23T13:20:58;3.17;;;2.10;;
44842;SDS011;31884;52.538;13.820;2022-07-23T13:23:24;2.90;;;1.95;;
44842;SDS011;31884;52.538;13.820;2022-07-23T13:25:49;1.80;;;1.50;;
44842;SDS011;31884;52.538;13.820;2022-07-23T13:28:16;1.73;;;1.63;;
44842;SDS011;31884;52.538;13.820;2022-07-23T13:30:42;4.22;;;1.80;;
44842;SDS011;31884;52.538;13.820;2022-07-23T13:33:09;2.40;;;1.80;;
44842;SDS011;31884;52.538;13.820;2022-07-23T13:35:35;3.55;;;2.15;;
44842;SDS011;31884;52.538;13.820;2022-07-23T13:38:02;3.85;;;2.30;;
44842;SDS011;31884;52.538;13.820;2022-07-23T13:40:29;2.35;;;2.00;;
44842;SDS011;31884;52.538;13.820;2022-07-23T13:42:54;2.92;;;2.08;;
44842;SDS011;31884;52.538;13.820;2022-07-23T13:45:21;5.22;;;2.25;;
44842;SDS011;31884;52.538;13.820;2022-07-23T13:47:47;3.40;;;2.10;;
44842;SDS011;31884;52.538;13.820;2022-07-23T13:50:13;2.65;;;2.00;;
44842;SDS011;31884;52.538;13.820;2022-07-23T13:52:40;1.88;;;1.70;;
44842;SDS011;31884;52.538;13.820;2022-07-23T13:55:07;2.58;;;1.73;;
44842;SDS011;31884;52.538;13.820;2022-07-23T13:57:32;3.35;;;2.17;;
44842;SDS011;31884;52.538;13.820;2022-07-23T13:59:58;2.97;;;1.80;;
44842;SDS011;31884;52.538;13.820;2022-07-23T14:02:24;2.00;;;1.90;;
44842;SDS011;31884;52.538;13.820;2022-07-23T14:04:49;3.80;;;1.80;;
44842;SDS011;31884;52.538;13.820;2022-07-23T14:07:15;3.35;;;2.35;;
44842;SDS011;31884;52.538;13.820;2022-07-23T14:09:41;3.67;;;2.20;;
44842;SDS011;31884;52.538;13.820;2022-07-23T14:12:06;4.47;;;1.70;;
44842;SDS011;31884;52.538;13.820;2022-07-23T14:14:32;5.18;;;2.35;;
44842;SDS011;31884;52.538;13.820;2022-07-23T14:16:58;3.10;;;2.00;;
44842;SDS011;31884;52.538;13.820;2022-07-23T14:19:23;2.25;;;1.90;;
44842;SDS011;31884;52.538;13.820;2022-07-23T14:21:49;2.50;;;2.03;;
44842;SDS011;31884;52.538;13.820;2022-07-23T14:24:15;4.65;;;2.58;;
44842;SDS011;31884;52.538;13.820;2022-07-23T14:26:41;2.78;;;1.67;;
44842;SDS011;31884;52.538;13.820;2022-07-23T14:29:06;3.15;;;2.08;;
44842;SDS011;31884;52.538;13.820;2022-07-23T14:31:32;2.55;;;1.55;;
44842;SDS011;31884;52.538;13.820;2022-07-23T14:33:57;2.35;;;1.85;;
44842;SDS011;31884;52.538;13.820;2022-07-23T14:36:24;2.45;;;2.00;;
44842;SDS011;31884;52.538;13.820;2022-07-23T14:38:50;2.38;;;1.75;;
44842;SDS011;31884;52.538;13.820;2022-07-23T14:41:16;3.05;;;1.75;;
44842;SDS011;31884;52.538;13.820;2022-07-23T14:43:41;2.97;;;1.85;;
44842;SDS011;31884;52.538;13.820;2022-07-23T14:46:07;3.53;;;1.70;;
44842;SDS011;31884;52.538;13.820;2022-07-23T14:48:33;3.17;;;1.67;;
44842;SDS011;31884;52.538;13.820;2022-07-23T14:50:59;3.13;;;2.10;;
44842;SDS011;31884;52.538;13.820;2022-07-23T14:53:24;2.17;;;1.40;;
44842;SDS011;31884;52.538;13.820;2022-07-23T14:55:50;2.35;;;1.40;;
44842;SDS011;31884;52.538;13.820;2022-07-23T14:58:15;4.55;;;2.45;;
44842;SDS011;31884;52.538;13.820;2022-07-23T15:00:42;2.90;;;1.50;;
44842;SDS011;31884;52.538;13.820;2022-07-23T15:03:08;2.47;;;1.77;;
44842;SDS011;31884;52.538;13.820;2022-07-23T15:05:33;2.15;;;1.80;;
44842;SDS011;31884;52.538;13.820;2022-07-23T15:07:59;2.40;;;1.60;;
44842;SDS011;31884;52.538;13.820;2022-07-23T15:10:24;2.38;;;1.60;;
44842;SDS011;31884;52.538;13.820;2022-07-23T15:12:50;1.92;;;1.33;;
44842;SDS011;31884;52.538;13.820;2022-07-23T15:15:15;3.03;;;1.30;;
44842;SDS011;31884;52.538;13.820;2022-07-23T15:17:42;1.65;;;1.20;;
44842;SDS011;31884;52.538;13.820;2022-07-23T15:20:08;2.80;;;1.50;;
44842;SDS011;31884;52.538;13.820;2022-07-23T15:22:34;1.85;;;1.55;;
44842;SDS011;31884;52.538;13.820;2022-07-23T15:24:59;3.55;;;1.50;;
44842;SDS011;31884;52.538;13.820;2022-07-23T15:27:25;5.00;;;1.80;;